Portada
METAR-TAF:

METAR-TAF

Aeropuertos :

Aruba, Aruba

Aeropuerto Internacional Reina Beatrix

latitud: 12-30N, longitud: 070-01W, altitud: 18 m

Observación

El informe se hizo hace 38 minutos, a las 23:00 UTC
Viento 20 kt del este
Temperatura 29°C
Humedad 79%
Presión 1007 hPa
Visibilidad 10 km o más
Escasas nubes a una altura de 1800 ft

METAR: TNCA 202300Z 09020KT 9999 FEW018 29/25 Q1007 A2975 NOSIG

Hora: 19:38 (23:38 UTC)

Pronóstico

El informe se hizo hace 7 horas y 38 minutos, a las 16:00 UTC
Pronóstico válido del 20 a las 18 UTC al 21 a las 18 UTC
Viento 22 kt del este con ráfagas de 33 kt
Visibilidad 10 km o más
Nubes dispersas a una altura de 2000 ft
Temporalmente
del 20 a las 08 UTC al 20 a las 16 UTC
Visibilidad: 7000 m
Cielo nuboso a una altura de 1500 ft
chaparrones de lluvia

TAF: TNCA 201600Z 2018/2118 09022G33KT 9999 SCT020 TEMPO 2008/2016 7000 SHRA BKN015

Observaciones y pronósticos meteorológicos de más de 4000 aeropuertos (mensajes METAR y TAF).

Los puntos amarillos y rojos representan las estaciones disponibles.

Ponga el ratón en el punto deseado para ver el nombre de la estación.

Haga clic para ver las observaciones y los pronósticos meteorológicos.

Para cambiar el mapa : haga clic en los botones verdes con una cruz de color negro para hacer un zoom, en el botón verde con un guión para alejar o en las flechas verdes para mapas adyacentes.


METAR-TAF: